Time,TemperatureF,DewpointF,PressureIn,WindDirection,WindDirectionDegrees,WindSpeedMPH,WindSpeedGustMPH,Humidity,HourlyPrecipIn,Conditions,Clouds,dailyrainin,SoftwareType,DateUTC
2013-05-22 00:02:00,46.0,36.0,-100.00,WSW,253,6.0,7.0,68,0.00,,,-99.99,,2013-05-22 08:02:00,
2013-05-22 00:11:00,46.0,36.0,-100.00,WSW,253,6.0,7.0,68,0.00,,,-99.99,,2013-05-22 08:11:00,
2013-05-22 00:22:00,46.0,36.0,-100.00,WSW,253,6.0,7.0,68,0.00,,,-99.99,,2013-05-22 08:22:00,
2013-05-22 00:30:00,45.0,37.0,-100.00,NW,315,7.0,10.0,74,0.00,,,-99.99,,2013-05-22 08:30:00,
2013-05-22 00:52:00,45.0,37.0,-100.00,NW,315,7.0,10.0,74,0.00,,,-99.99,,2013-05-22 08:52:00,
2013-05-22 01:01:00,45.0,37.0,-100.00,NW,315,7.0,10.0,74,0.00,,,-99.99,,2013-05-22 09:01:00,
2013-05-22 01:11:00,45.0,37.0,-100.00,NW,315,7.0,10.0,74,0.00,,,-99.99,,2013-05-22 09:11:00,
2013-05-22 01:21:00,45.0,37.0,-100.00,NW,315,7.0,10.0,74,0.00,,,-99.99,,2013-05-22 09:21:00,
2013-05-22 01:30:00,44.0,37.0,-100.00,NNE,15,5.0,7.0,75,0.00,,,-99.99,,2013-05-22 09:30:00,
2013-05-22 01:53:00,44.0,37.0,-100.00,NNE,15,5.0,7.0,75,0.00,,,-99.99,,2013-05-22 09:53:00,
2013-05-22 02:02:00,44.0,37.0,-100.00,NNE,15,5.0,7.0,75,0.00,,,-99.99,,2013-05-22 10:02:00,
2013-05-22 02:12:00,44.0,37.0,-100.00,NNE,15,5.0,7.0,75,0.00,,,-99.99,,2013-05-22 10:12:00,
2013-05-22 02:22:00,44.0,37.0,-100.00,NNE,15,5.0,7.0,75,0.00,,,-99.99,,2013-05-22 10:22:00,
2013-05-22 02:30:00,44.0,37.0,-100.00,ENE,61,11.0,13.0,78,0.00,,,-99.99,,2013-05-22 10:30:00,
2013-05-22 02:52:00,44.0,37.0,-100.00,ENE,61,11.0,13.0,78,0.00,,,-99.99,,2013-05-22 10:52:00,
2013-05-22 03:02:00,44.0,37.0,-100.00,ENE,61,11.0,13.0,78,0.00,,,-99.99,,2013-05-22 11:02:00,
2013-05-22 03:11:00,44.0,37.0,-100.00,ENE,61,11.0,13.0,78,0.00,,,-99.99,,2013-05-22 11:11:00,
2013-05-22 03:21:00,44.0,37.0,-100.00,ENE,61,11.0,13.0,78,0.00,,,-99.99,,2013-05-22 11:21:00,
2013-05-22 03:30:00,44.0,38.0,-100.00,NE,54,9.0,9.0,82,0.00,,,-99.99,,2013-05-22 11:30:00,
2013-05-22 03:52:00,44.0,38.0,-100.00,NE,54,9.0,9.0,82,0.00,,,-99.99,,2013-05-22 11:52:00,
2013-05-22 04:02:00,44.0,38.0,-100.00,NE,54,9.0,9.0,82,0.00,,,-99.99,,2013-05-22 12:02:00,
2013-05-22 04:12:00,44.0,38.0,-100.00,NE,54,9.0,9.0,82,0.00,,,-99.99,,2013-05-22 12:12:00,
2013-05-22 04:22:00,44.0,38.0,-100.00,NE,54,9.0,9.0,82,0.00,,,-99.99,,2013-05-22 12:22:00,
2013-05-22 04:30:00,43.0,39.0,-100.00,ESE,116,2.0,4.0,85,0.00,,,-99.99,,2013-05-22 12:30:00,
2013-05-22 04:52:00,43.0,39.0,-100.00,ESE,116,2.0,4.0,85,0.00,,,-99.99,,2013-05-22 12:52:00,
2013-05-22 05:01:00,43.0,39.0,-100.00,ESE,116,2.0,4.0,85,0.00,,,-99.99,,2013-05-22 13:01:00,
2013-05-22 05:11:00,43.0,39.0,-100.00,ESE,116,2.0,4.0,85,0.00,,,-99.99,,2013-05-22 13:11:00,
2013-05-22 05:22:00,43.0,39.0,-100.00,ESE,116,2.0,4.0,85,0.00,,,-99.99,,2013-05-22 13:22:00,
2013-05-22 05:30:00,43.0,38.0,-100.00,East,82,1.0,1.0,82,0.00,,,-99.99,,2013-05-22 13:30:00,
2013-05-22 05:52:00,43.0,38.0,-100.00,East,82,1.0,1.0,82,0.00,,,-99.99,,2013-05-22 13:52:00,
2013-05-22 06:02:00,43.0,38.0,-100.00,East,82,1.0,1.0,82,0.00,,,-99.99,,2013-05-22 14:02:00,
2013-05-22 06:11:00,43.0,38.0,-100.00,East,82,1.0,1.0,82,0.00,,,-99.99,,2013-05-22 14:11:00,
2013-05-22 06:21:00,43.0,38.0,-100.00,East,82,1.0,1.0,82,0.00,,,-99.99,,2013-05-22 14:21:00,
2013-05-22 06:30:00,43.0,38.0,-100.00,NE,37,5.0,6.0,83,0.00,,,-99.99,,2013-05-22 14:30:00,
2013-05-22 06:52:00,43.0,38.0,-100.00,NE,37,5.0,6.0,83,0.00,,,-99.99,,2013-05-22 14:52:00,
2013-05-22 07:01:00,43.0,38.0,-100.00,NE,37,5.0,6.0,83,0.00,,,-99.99,,2013-05-22 15:01:00,
2013-05-22 07:11:00,43.0,38.0,-100.00,NE,37,5.0,6.0,83,0.00,,,-99.99,,2013-05-22 15:11:00,
2013-05-22 07:21:00,43.0,38.0,-100.00,NE,37,5.0,6.0,83,0.00,,,-99.99,,2013-05-22 15:21:00,
2013-05-22 07:30:00,43.0,37.0,-100.00,ENE,64,6.0,8.0,80,0.00,,,-99.99,,2013-05-22 15:30:00,
2013-05-22 07:53:00,43.0,37.0,-100.00,ENE,64,6.0,8.0,80,0.00,,,-99.99,,2013-05-22 15:53:00,
2013-05-22 08:03:00,43.0,37.0,-100.00,ENE,64,6.0,8.0,80,0.00,,,-99.99,,2013-05-22 16:03:00,
2013-05-22 08:12:00,43.0,37.0,-100.00,ENE,64,6.0,8.0,80,0.00,,,-99.99,,2013-05-22 16:12:00,
2013-05-22 08:23:00,43.0,37.0,-100.00,ENE,64,6.0,8.0,80,0.00,,,-99.99,,2013-05-22 16:23:00,
2013-05-22 08:30:00,44.0,37.0,-100.00,ENE,66,4.0,6.0,78,0.00,,,-99.99,,2013-05-22 16:30:00,
2013-05-22 08:52:00,44.0,37.0,-100.00,ENE,66,4.0,6.0,78,0.00,,,-99.99,,2013-05-22 16:52:00,
2013-05-22 09:02:00,44.0,37.0,-100.00,ENE,66,4.0,6.0,78,0.00,,,-99.99,,2013-05-22 17:02:00,
2013-05-22 09:11:00,44.0,37.0,-100.00,ENE,66,4.0,6.0,78,0.00,,,-99.99,,2013-05-22 17:11:00,
2013-05-22 09:22:00,44.0,37.0,-100.00,ENE,66,4.0,6.0,78,0.00,,,-99.99,,2013-05-22 17:22:00,
2013-05-22 09:30:00,44.0,38.0,-100.00,NE,40,5.0,7.0,79,0.00,,,-99.99,,2013-05-22 17:30:00,
2013-05-22 09:53:00,44.0,38.0,-100.00,NE,40,5.0,7.0,79,0.00,,,-99.99,,2013-05-22 17:53:00,
2013-05-22 10:02:00,44.0,38.0,-100.00,NE,40,5.0,7.0,79,0.00,,,-99.99,,2013-05-22 18:02:00,
2013-05-22 10:14:00,44.0,38.0,-100.00,NE,40,5.0,7.0,79,0.00,,,-99.99,,2013-05-22 18:14:00,
2013-05-22 10:22:00,44.0,38.0,-100.00,NE,40,5.0,7.0,79,0.00,,,-99.99,,2013-05-22 18:22:00,
2013-05-22 10:30:00,44.0,38.0,-100.00,NE,44,4.0,6.0,78,0.00,,,-99.99,,2013-05-22 18:30:00,
2013-05-22 10:52:00,44.0,38.0,-100.00,NE,44,4.0,6.0,78,0.00,,,-99.99,,2013-05-22 18:52:00,
2013-05-22 11:02:00,44.0,38.0,-100.00,NE,44,4.0,6.0,78,0.00,,,-99.99,,2013-05-22 19:02:00,
2013-05-22 11:11:00,44.0,38.0,-100.00,NE,44,4.0,6.0,78,0.00,,,-99.99,,2013-05-22 19:11:00,
2013-05-22 11:21:00,44.0,38.0,-100.00,NE,44,4.0,6.0,78,0.00,,,-99.99,,2013-05-22 19:21:00,
2013-05-22 11:30:00,45.0,38.0,-100.00,NW,320,2.0,4.0,77,0.01,,,-99.99,,2013-05-22 19:30:00,
2013-05-22 11:52:00,45.0,38.0,-100.00,NW,320,2.0,4.0,77,0.01,,,-99.99,,2013-05-22 19:52:00,
2013-05-22 12:02:00,45.0,38.0,-100.00,NW,320,2.0,4.0,77,0.01,,,-99.99,,2013-05-22 20:02:00,
2013-05-22 12:11:00,45.0,38.0,-100.00,NW,320,2.0,4.0,77,0.01,,,-99.99,,2013-05-22 20:11:00,
2013-05-22 12:21:00,45.0,38.0,-100.00,NW,320,2.0,4.0,77,0.01,,,-99.99,,2013-05-22 20:21:00,
2013-05-22 12:30:00,46.0,39.0,-100.00,North,350,4.0,5.0,78,0.01,,,-99.99,,2013-05-22 20:30:00,
2013-05-22 12:52:00,46.0,39.0,-100.00,North,350,4.0,5.0,78,0.01,,,-99.99,,2013-05-22 20:52:00,
2013-05-22 13:01:00,46.0,39.0,-100.00,North,350,4.0,5.0,78,0.01,,,-99.99,,2013-05-22 21:01:00,
2013-05-22 13:11:00,46.0,39.0,-100.00,North,350,4.0,5.0,78,0.01,,,-99.99,,2013-05-22 21:11:00,
2013-05-22 13:21:00,46.0,39.0,-100.00,North,350,4.0,5.0,78,0.01,,,-99.99,,2013-05-22 21:21:00,
2013-05-22 13:30:00,47.0,40.0,-100.00,NNE,23,2.0,3.0,77,0.00,,,-99.99,,2013-05-22 21:30:00,
2013-05-22 13:53:00,47.0,40.0,-100.00,NNE,23,2.0,3.0,77,0.00,,,-99.99,,2013-05-22 21:53:00,
2013-05-22 14:03:00,47.0,40.0,-100.00,NNE,23,2.0,3.0,77,0.00,,,-99.99,,2013-05-22 22:03:00,
2013-05-22 14:12:00,47.0,40.0,-100.00,NNE,23,2.0,3.0,77,0.00,,,-99.99,,2013-05-22 22:12:00,
2013-05-22 14:22:00,47.0,40.0,-100.00,NNE,23,2.0,3.0,77,0.00,,,-99.99,,2013-05-22 22:22:00,
2013-05-22 14:30:00,48.0,40.0,-100.00,North,6,1.0,3.0,74,0.00,,,-99.99,,2013-05-22 22:30:00,
2013-05-22 14:52:00,48.0,40.0,-100.00,North,6,1.0,3.0,74,0.00,,,-99.99,,2013-05-22 22:52:00,
2013-05-22 15:02:00,48.0,40.0,-100.00,North,6,1.0,3.0,74,0.00,,,-99.99,,2013-05-22 23:02:00,
2013-05-22 15:12:00,48.0,40.0,-100.00,North,6,1.0,3.0,74,0.00,,,-99.99,,2013-05-22 23:12:00,
2013-05-22 15:21:00,48.0,40.0,-100.00,North,6,1.0,3.0,74,0.00,,,-99.99,,2013-05-22 23:21:00,
2013-05-22 15:30:00,48.0,41.0,-100.00,NNW,331,4.0,6.0,77,0.01,,,-99.99,,2013-05-22 23:30:00,
2013-05-22 15:52:00,48.0,41.0,-100.00,NNW,331,4.0,6.0,77,0.01,,,-99.99,,2013-05-22 23:52:00,
2013-05-22 16:01:00,48.0,41.0,-100.00,NNW,331,4.0,6.0,77,0.01,,,-99.99,,2013-05-23 00:01:00,
2013-05-22 16:11:00,48.0,41.0,-100.00,NNW,331,4.0,6.0,77,0.01,,,-99.99,,2013-05-23 00:11:00,
2013-05-22 16:21:00,48.0,41.0,-100.00,NNW,331,4.0,6.0,77,0.01,,,-99.99,,2013-05-23 00:21:00,
2013-05-22 16:30:00,47.0,41.0,-100.00,NNW,330,5.0,7.0,80,0.01,,,-99.99,,2013-05-23 00:30:00,
2013-05-22 16:52:00,47.0,41.0,-100.00,NNW,330,5.0,7.0,80,0.01,,,-99.99,,2013-05-23 00:52:00,
2013-05-22 17:01:00,47.0,41.0,-100.00,NNW,330,5.0,7.0,80,0.01,,,-99.99,,2013-05-23 01:01:00,
2013-05-22 17:11:00,47.0,41.0,-100.00,NNW,330,5.0,7.0,80,0.01,,,-99.99,,2013-05-23 01:11:00,
2013-05-22 17:21:00,47.0,41.0,-100.00,NNW,330,5.0,7.0,80,0.01,,,-99.99,,2013-05-23 01:21:00,
2013-05-22 17:30:00,47.0,41.0,-100.00,WNW,294,5.0,7.0,82,0.01,,,-99.99,,2013-05-23 01:30:00,
2013-05-22 17:52:00,47.0,41.0,-100.00,WNW,294,5.0,7.0,82,0.01,,,-99.99,,2013-05-23 01:52:00,
2013-05-22 18:01:00,47.0,41.0,-100.00,WNW,294,5.0,7.0,82,0.01,,,-99.99,,2013-05-23 02:01:00,
2013-05-22 18:11:00,47.0,41.0,-100.00,WNW,294,5.0,7.0,82,0.01,,,-99.99,,2013-05-23 02:11:00,
2013-05-22 18:21:00,47.0,41.0,-100.00,WNW,294,5.0,7.0,82,0.01,,,-99.99,,2013-05-23 02:21:00,
2013-05-22 18:30:00,46.0,42.0,-100.00,NW,305,5.0,7.0,84,0.00,,,-99.99,,2013-05-23 02:30:00,
2013-05-22 19:01:00,46.0,42.0,-100.00,NW,305,5.0,7.0,84,0.00,,,-99.99,,2013-05-23 03:01:00,
2013-05-22 19:11:00,46.0,42.0,-100.00,NW,305,5.0,7.0,84,0.00,,,-99.99,,2013-05-23 03:11:00,
2013-05-22 19:21:00,46.0,42.0,-100.00,NW,305,5.0,7.0,84,0.00,,,-99.99,,2013-05-23 03:21:00,
2013-05-22 19:30:00,46.0,42.0,-100.00,NW,312,7.0,8.0,84,0.00,,,-99.99,,2013-05-23 03:30:00,
2013-05-22 19:53:00,46.0,42.0,-100.00,NW,312,7.0,8.0,84,0.00,,,-99.99,,2013-05-23 03:53:00,
2013-05-22 20:02:00,46.0,42.0,-100.00,NW,312,7.0,8.0,84,0.00,,,-99.99,,2013-05-23 04:02:00,
2013-05-22 20:12:00,46.0,42.0,-100.00,NW,312,7.0,8.0,84,0.00,,,-99.99,,2013-05-23 04:12:00,
2013-05-22 20:22:00,46.0,42.0,-100.00,NW,312,7.0,8.0,84,0.00,,,-99.99,,2013-05-23 04:22:00,
2013-05-22 20:30:00,46.0,41.0,-100.00,NW,305,7.0,9.0,81,0.00,,,-99.99,,2013-05-23 04:30:00,
2013-05-22 20:52:00,46.0,41.0,-100.00,NW,305,7.0,9.0,81,0.00,,,-99.99,,2013-05-23 04:52:00,
2013-05-22 21:02:00,46.0,41.0,-100.00,NW,305,7.0,9.0,81,0.00,,,-99.99,,2013-05-23 05:02:00,
2013-05-22 21:11:00,46.0,41.0,-100.00,NW,305,7.0,9.0,81,0.00,,,-99.99,,2013-05-23 05:11:00,
2013-05-22 21:21:00,46.0,41.0,-100.00,NW,305,7.0,9.0,81,0.00,,,-99.99,,2013-05-23 05:21:00,
2013-05-22 21:30:00,46.0,40.0,-100.00,WNW,298,5.0,7.0,80,0.00,,,-99.99,,2013-05-23 05:30:00,
2013-05-22 21:52:00,46.0,40.0,-100.00,WNW,298,5.0,7.0,80,0.00,,,-99.99,,2013-05-23 05:52:00,
2013-05-22 22:02:00,46.0,40.0,-100.00,WNW,298,5.0,7.0,80,0.00,,,-99.99,,2013-05-23 06:02:00,
2013-05-22 22:12:00,46.0,40.0,-100.00,WNW,298,5.0,7.0,80,0.00,,,-99.99,,2013-05-23 06:12:00,
2013-05-22 22:21:00,46.0,40.0,-100.00,WNW,298,5.0,7.0,80,0.00,,,-99.99,,2013-05-23 06:21:00,
2013-05-22 22:30:00,46.0,41.0,-100.00,WSW,258,3.0,4.0,83,0.00,,,-99.99,,2013-05-23 06:30:00,
2013-05-22 22:52:00,46.0,41.0,-100.00,WSW,258,3.0,4.0,83,0.00,,,-99.99,,2013-05-23 06:52:00,
2013-05-22 23:02:00,46.0,41.0,-100.00,WSW,258,3.0,4.0,83,0.00,,,-99.99,,2013-05-23 07:02:00,
2013-05-22 23:11:00,46.0,41.0,-100.00,WSW,258,3.0,4.0,83,0.00,,,-99.99,,2013-05-23 07:11:00,
2013-05-22 23:21:00,46.0,41.0,-100.00,WSW,258,3.0,4.0,83,0.00,,,-99.99,,2013-05-23 07:21:00,
2013-05-22 23:30:00,46.0,41.0,-100.00,NW,320,3.0,5.0,82,0.00,,,-99.99,,2013-05-23 07:30:00,
2013-05-22 23:59:00,46.0,41.0,-100.00,NW,320,3.0,5.0,82,0.00,,,-99.99,,2013-05-23 07:59:00,